Kenduskeag, Maine
Current Conditions -  °F | °C
As of 5:53 PM on Tuesday 21 Oct 2014 (Local Time) from KBGR Reporting Station
Light Rain Light Rain  
Wind Chill: 45°   Ceiling: 3400
Heat Index: 49°   Visibility: 6mi
Dew Point: 46°   Wind: 8mph
Humidity: 90%   Direction: 50°NE
Pressure: 30.11"   Gusts: NA
Location:  44.92°N, 68.93°W
Report Text: KBGR 212153Z 05007KT 6SM -RA BR SCT026 BKN034 OVC050 09/08 A3011 RMK AO2 SLP197 P0003 T00940078
Loading
Personal Weather Stations






























Interactive Weather Map
Tropical Storm Tracking
New forecast layout! Learn more

10-Day Weather Forecast

Advertisements
Track Severe Weather on mobile